Time;durP1;ratioP1;P1;durP2;ratioP2;P2;SDS_P1;SDS_P2;PMS_P1;PMS_P2;Temp;Humidity;BMP_temperature;BMP_pressure;BME280_temperature;BME280_humidity;BME280_pressure;Samples;Min_cycle;Max_cycle;Signal;HPM_P1;HPM_P2
2022/06/15 00:01:14;;;;;;;4.03;3.70;;;;;;;;;;4857355;29;20056;-79
2022/06/15 00:03:41;;;;;;;4.32;3.80;;;;;;;;;;4854960;29;20049;-79
2022/06/15 00:06:29;;;;;;;6.28;4.28;;;;;;;;;;4873967;29;20109;-82
2022/06/15 00:08:58;;;;;;;7.55;3.65;;;;;;;;;;4854585;29;20475;-80
2022/06/15 00:11:28;;;;;;;4.30;3.90;;;;;;;;;;4816854;29;20130;-80
2022/06/15 00:13:58;;;;;;;4.38;3.97;;;;;;;;;;4837460;29;20044;-80
2022/06/15 00:16:25;;;;;;;4.20;3.90;;;;;;;;;;4835625;29;20056;-80
2022/06/15 00:18:53;;;;;;;4.60;4.20;;;;;;;;;;4829608;29;20057;-79
2022/06/15 00:21:21;;;;;;;4.13;3.80;;;;;;;;;;4840065;29;20084;-80
2022/06/15 00:23:50;;;;;;;4.50;4.10;;;;;;;;;;4860315;29;20458;-80
2022/06/15 00:26:17;;;;;;;6.38;4.00;;;;;;;;;;4846003;29;20148;-80
2022/06/15 00:28:45;;;;;;;4.32;3.92;;;;;;;;;;4861869;29;20052;-80
2022/06/15 00:31:12;;;;;;;6.00;3.92;;;;;;;;;;4838558;29;20133;-80
2022/06/15 00:33:40;;;;;;;4.43;4.07;;;;;;;;;;4839139;29;20057;-80
2022/06/15 00:36:08;;;;;;;4.38;3.97;;;;;;;;;;4850805;29;20054;-80
2022/06/15 00:38:38;;;;;;;6.65;4.40;;;;;;;;;;4827503;29;20053;-80
2022/06/15 00:41:06;;;;;;;5.50;4.20;;;;;;;;;;4857948;29;20052;-80
2022/06/15 00:43:36;;;;;;;4.68;4.03;;;;;;;;;;4850096;29;20072;-80
2022/06/15 00:46:13;;;;;;;5.80;4.63;;;;;;;;;;4863660;29;20105;-81
2022/06/15 00:48:43;;;;;;;4.65;4.35;;;;;;;;;;4850023;29;20131;-81
2022/06/15 00:51:11;;;;;;;4.10;3.80;;;;;;;;;;4845809;29;20045;-81
2022/06/15 00:53:39;;;;;;;6.78;4.18;;;;;;;;;;4833442;29;20068;-80
2022/06/15 00:56:08;;;;;;;5.82;4.68;;;;;;;;;;4842583;29;20069;-81
2022/06/15 00:58:38;;;;;;;;;;;;;;;;;;4848053;29;20242;-80
2022/06/15 01:01:06;;;;;;;4.57;4.18;;;;;;;;;;4829107;29;19971;-81
2022/06/15 01:03:34;;;;;;;4.75;4.30;;;;;;;;;;4843531;29;20053;-80
2022/06/15 01:06:15;;;;;;;6.95;4.72;;;;;;;;;;4824986;29;20467;-80
2022/06/15 01:08:57;;;;;;;4.88;4.47;;;;;;;;;;4850003;29;20117;-80
2022/06/15 01:11:50;;;;;;;8.52;4.50;;;;;;;;;;4847149;29;20482;-81
2022/06/15 01:14:33;;;;;;;7.22;4.43;;;;;;;;;;4803366;29;20061;-81
2022/06/15 01:17:11;;;;;;;8.65;4.40;;;;;;;;;;4863031;29;20041;-80
2022/06/15 01:19:51;;;;;;;6.32;4.82;;;;;;;;;;4847346;29;20049;-80
2022/06/15 01:22:21;;;;;;;7.80;4.57;;;;;;;;;;4851393;29;20057;-81
2022/06/15 01:25:04;;;;;;;5.32;4.82;;;;;;;;;;4826689;29;20173;-81
2022/06/15 01:27:50;;;;;;;6.32;4.70;;;;;;;;;;4863231;29;20098;-79
2022/06/15 01:30:20;;;;;;;6.18;5.03;;;;;;;;;;4853522;29;20052;-80
2022/06/15 01:32:47;;;;;;;6.15;5.38;;;;;;;;;;4846764;29;20119;-80
2022/06/15 01:35:23;;;;;;;5.85;5.18;;;;;;;;;;4848138;29;20057;-81
2022/06/15 01:37:51;;;;;;;6.05;4.60;;;;;;;;;;4859482;29;20075;-80
2022/06/15 01:40:28;;;;;;;5.28;4.75;;;;;;;;;;4843878;29;20056;-80
2022/06/15 01:42:58;;;;;;;6.15;5.28;;;;;;;;;;4853673;29;20045;-80
2022/06/15 01:45:27;;;;;;;6.22;5.30;;;;;;;;;;4860037;29;20069;-80
2022/06/15 01:47:58;;;;;;;5.93;5.43;;;;;;;;;;4830680;29;20557;-80
2022/06/15 01:50:30;;;;;;;5.68;4.88;;;;;;;;;;4847293;29;20051;-80
2022/06/15 01:53:10;;;;;;;5.78;4.68;;;;;;;;;;4840329;29;20077;-80
2022/06/15 01:55:47;;;;;;;5.47;5.07;;;;;;;;;;4819429;29;20056;-80
2022/06/15 01:58:17;;;;;;;6.15;5.00;;;;;;;;;;4839511;29;20058;-80
2022/06/15 02:00:49;;;;;;;5.45;4.80;;;;;;;;;;4838191;29;20045;-80
2022/06/15 02:03:26;;;;;;;9.10;5.00;;;;;;;;;;4844851;29;20118;-80
2022/06/15 02:05:57;;;;;;;5.75;5.03;;;;;;;;;;4839315;29;20418;-80
2022/06/15 02:08:34;;;;;;;6.55;5.18;;;;;;;;;;4834830;29;20045;-80
2022/06/15 02:11:05;;;;;;;5.70;5.13;;;;;;;;;;4833086;29;20125;-80
2022/06/15 02:13:33;;;;;;;7.22;4.90;;;;;;;;;;4837305;29;20106;-80
2022/06/15 02:16:04;;;;;;;6.75;5.10;;;;;;;;;;4838852;29;20098;-80
2022/06/15 02:18:32;;;;;;;9.55;5.78;;;;;;;;;;4850655;29;20081;-80
2022/06/15 02:21:09;;;;;;;5.57;5.03;;;;;;;;;;4867898;29;20491;-80
2022/06/15 02:23:38;;;;;;;5.88;5.28;;;;;;;;;;4847968;29;20049;-80
2022/06/15 02:26:06;;;;;;;6.43;5.43;;;;;;;;;;4847700;29;20101;-80
2022/06/15 02:28:39;;;;;;;6.00;5.40;;;;;;;;;;4841387;29;20049;-80
2022/06/15 02:31:07;;;;;;;6.55;5.55;;;;;;;;;;4819002;29;20073;-80
2022/06/15 02:33:45;;;;;;;8.18;5.20;;;;;;;;;;4839660;29;20062;-80
2022/06/15 02:36:13;;;;;;;5.82;5.30;;;;;;;;;;4851290;29;20056;-80
2022/06/15 02:38:44;;;;;;;5.60;5.10;;;;;;;;;;4844612;29;20053;-79
2022/06/15 02:41:12;;;;;;;;;;;;;;;;;;4845413;29;20045;-79
2022/06/15 02:43:40;;;;;;;7.05;5.22;;;;;;;;;;4859343;29;19950;-79
2022/06/15 02:46:09;;;;;;;6.88;6.05;;;;;;;;;;4859105;29;20048;-80
2022/06/15 02:48:38;;;;;;;6.22;5.63;;;;;;;;;;4859769;29;20060;-80
2022/06/15 02:51:05;;;;;;;5.22;4.72;;;;;;;;;;4850704;29;20101;-80
2022/06/15 02:53:35;;;;;;;5.82;5.22;;;;;;;;;;4852370;29;20041;-80
2022/06/15 02:56:05;;;;;;;6.05;4.78;;;;;;;;;;4843188;29;20072;-80
2022/06/15 02:58:34;;;;;;;5.90;4.78;;;;;;;;;;4844944;29;20054;-80
2022/06/15 03:01:02;;;;;;;6.22;5.45;;;;;;;;;;4857083;29;20464;-81
2022/06/15 03:03:33;;;;;;;5.68;5.07;;;;;;;;;;4818462;29;20045;-81
2022/06/15 03:06:18;;;;;;;5.20;4.70;;;;;;;;;;4841296;29;20261;-80
2022/06/15 03:08:48;;;;;;;5.18;4.68;;;;;;;;;;4850697;29;20422;-81
2022/06/15 03:11:24;;;;;;;5.97;4.60;;;;;;;;;;4845204;29;20166;-80
2022/06/15 03:13:54;;;;;;;5.50;5.00;;;;;;;;;;4827773;29;20148;-80
2022/06/15 03:16:22;;;;;;;5.32;4.47;;;;;;;;;;4818317;29;20114;-79
2022/06/15 03:18:50;;;;;;;9.15;4.55;;;;;;;;;;4871900;29;20097;-79
2022/06/15 03:21:18;;;;;;;7.03;4.70;;;;;;;;;;4873916;29;20034;-79
2022/06/15 03:23:45;;;;;;;5.70;5.20;;;;;;;;;;4869872;29;20041;-80
2022/06/15 03:26:16;;;;;;;5.60;4.50;;;;;;;;;;4835005;29;20149;-80
2022/06/15 03:28:43;;;;;;;4.93;4.43;;;;;;;;;;4847096;29;20140;-80
2022/06/15 03:31:15;;;;;;;5.15;4.60;;;;;;;;;;4837505;29;20042;-80
2022/06/15 03:33:44;;;;;;;6.63;4.90;;;;;;;;;;4858797;29;20045;-80
2022/06/15 03:36:16;;;;;;;5.25;4.85;;;;;;;;;;4847127;29;20152;-80
2022/06/15 03:38:44;;;;;;;5.13;4.72;;;;;;;;;;4837578;29;20464;-80
2022/06/15 03:41:17;;;;;;;5.82;5.22;;;;;;;;;;4847815;29;20060;-80
2022/06/15 03:43:46;;;;;;;5.18;4.65;;;;;;;;;;4822978;29;20181;-80
2022/06/15 03:46:14;;;;;;;5.57;5.18;;;;;;;;;;4841963;29;20049;-80
2022/06/15 03:48:43;;;;;;;7.50;5.13;;;;;;;;;;4849709;29;20041;-80
2022/06/15 03:51:11;;;;;;;6.68;5.32;;;;;;;;;;4864017;29;20055;-80
2022/06/15 03:53:48;;;;;;;8.15;4.85;;;;;;;;;;4823075;29;20089;-80
2022/06/15 03:56:16;;;;;;;5.38;4.90;;;;;;;;;;4821448;29;20074;-80
2022/06/15 03:58:45;;;;;;;8.63;5.25;;;;;;;;;;4821024;29;20053;-80
2022/06/15 04:01:16;;;;;;;5.97;5.40;;;;;;;;;;4819521;29;20489;-80
2022/06/15 04:03:44;;;;;;;6.18;5.18;;;;;;;;;;4832171;29;20038;-80
2022/06/15 04:06:20;;;;;;;5.18;4.78;;;;;;;;;;4841230;29;20121;-81
2022/06/15 04:08:52;;;;;;;5.85;4.78;;;;;;;;;;4856466;29;20041;-80
2022/06/15 04:14:16;;;;;;;4.90;4.45;;;;;;;;;;4857641;29;20439;-80
2022/06/15 04:16:53;;;;;;;5.75;4.60;;;;;;;;;;4838109;29;20059;-80
2022/06/15 04:19:26;;;;;;;5.63;5.13;;;;;;;;;;4844905;29;20467;-79
2022/06/15 04:21:54;;;;;;;4.80;4.40;;;;;;;;;;4841774;29;20045;-80
2022/06/15 04:24:22;;;;;;;5.35;4.88;;;;;;;;;;4847214;29;20067;-79
2022/06/15 04:26:52;;;;;;;8.13;4.60;;;;;;;;;;4838319;29;20055;-81
2022/06/15 04:29:22;;;;;;;5.25;4.85;;;;;;;;;;4842962;29;20165;-81
2022/06/15 04:31:50;;;;;;;6.68;4.68;;;;;;;;;;4849724;29;20120;-81
2022/06/15 04:34:21;;;;;;;6.97;5.10;;;;;;;;;;4848850;29;20053;-81
2022/06/15 04:36:51;;;;;;;5.35;4.90;;;;;;;;;;4824325;29;20046;-81
2022/06/15 04:39:19;;;;;;;6.18;4.60;;;;;;;;;;4837986;29;20090;-80
2022/06/15 04:41:47;;;;;;;4.75;4.45;;;;;;;;;;4832792;29;20062;-80
2022/06/15 04:44:15;;;;;;;5.50;4.43;;;;;;;;;;4823290;29;20476;-80
2022/06/15 04:46:50;;;;;;;4.25;3.95;;;;;;;;;;4824584;29;20459;-81
2022/06/15 04:49:22;;;;;;;4.75;4.35;;;;;;;;;;4848110;29;20070;-80
2022/06/15 04:51:52;;;;;;;4.85;4.40;;;;;;;;;;4836953;29;20056;-80
2022/06/15 04:54:22;;;;;;;5.97;4.72;;;;;;;;;;4853915;29;20060;-81
2022/06/15 04:56:53;;;;;;;5.13;4.32;;;;;;;;;;4865471;29;20052;-81
2022/06/15 04:59:21;;;;;;;4.43;4.03;;;;;;;;;;4855745;29;20107;-81
2022/06/15 05:01:55;;;;;;;6.43;4.38;;;;;;;;;;4864857;29;20101;-80
2022/06/15 05:04:27;;;;;;;5.63;4.13;;;;;;;;;;4855210;29;20045;-80
2022/06/15 05:06:55;;;;;;;4.47;4.07;;;;;;;;;;4822118;29;20446;-81
2022/06/15 05:09:22;;;;;;;4.78;4.25;;;;;;;;;;4828824;29;20056;-80
2022/06/15 05:11:53;;;;;;;4.97;3.80;;;;;;;;;;4808042;29;20089;-81
2022/06/15 05:14:21;;;;;;;5.53;3.88;;;;;;;;;;4840542;29;20049;-81
2022/06/15 05:16:53;;;;;;;4.30;3.90;;;;;;;;;;4838066;29;20052;-81
2022/06/15 05:19:35;;;;;;;4.05;3.63;;;;;;;;;;4836372;29;20053;-82
2022/06/15 05:22:03;;;;;;;6.25;4.15;;;;;;;;;;4824008;29;20050;-80
2022/06/15 05:24:33;;;;;;;4.30;3.83;;;;;;;;;;4819997;29;20557;-81
2022/06/15 05:27:07;;;;;;;7.10;4.07;;;;;;;;;;4820296;29;20129;-80
2022/06/15 05:29:45;;;;;;;4.50;4.13;;;;;;;;;;4827625;29;20056;-79
2022/06/15 05:32:18;;;;;;;5.20;4.35;;;;;;;;;;5016341;24;20089;-80
2022/06/15 05:34:46;;;;;;;4.50;4.20;;;;;;;;;;4805308;29;20615;-81
2022/06/15 05:37:24;;;;;;;5.78;4.57;;;;;;;;;;4778776;29;20161;-80
2022/06/15 05:39:54;;;;;;;4.28;3.95;;;;;;;;;;4809506;29;20051;-81
2022/06/15 05:42:21;;;;;;;4.40;3.92;;;;;;;;;;4822487;29;20072;-81
2022/06/15 05:44:56;;;;;;;4.35;3.95;;;;;;;;;;4790065;29;20043;-81
2022/06/15 05:47:24;;;;;;;4.80;4.30;;;;;;;;;;4807430;29;20077;-81
2022/06/15 05:50:11;;;;;;;4.10;3.80;;;;;;;;;;4790331;29;20061;-80
2022/06/15 05:52:59;;;;;;;6.07;4.25;;;;;;;;;;4805887;29;20065;-81
2022/06/15 05:55:26;;;;;;;5.68;4.60;;;;;;;;;;4808817;29;20092;-81
2022/06/15 05:57:54;;;;;;;5.40;4.22;;;;;;;;;;4820701;29;20499;-81
2022/06/15 06:00:23;;;;;;;4.85;4.13;;;;;;;;;;4820755;29;20083;-79
2022/06/15 06:02:50;;;;;;;5.65;4.50;;;;;;;;;;4806057;29;20061;-80
2022/06/15 06:05:18;;;;;;;6.40;4.40;;;;;;;;;;4787501;29;20181;-80
2022/06/15 06:07:45;;;;;;;4.60;4.10;;;;;;;;;;4803615;29;20343;-80
2022/06/15 06:10:15;;;;;;;6.78;3.90;;;;;;;;;;4823357;29;20101;-80
2022/06/15 06:12:43;;;;;;;4.50;4.10;;;;;;;;;;4821631;29;20141;-80
2022/06/15 06:15:10;;;;;;;7.13;3.80;;;;;;;;;;4817482;29;20050;-81
2022/06/15 06:17:38;;;;;;;7.38;4.32;;;;;;;;;;4816460;29;20054;-80
2022/06/15 06:20:05;;;;;;;5.65;4.20;;;;;;;;;;4822119;29;20046;-82
2022/06/15 06:22:33;;;;;;;5.63;3.88;;;;;;;;;;4830231;29;20134;-82
2022/06/15 06:25:00;;;;;;;4.50;4.10;;;;;;;;;;4805042;29;20043;-81
2022/06/15 06:27:28;;;;;;;3.97;3.42;;;;;;;;;;4798551;29;20046;-81
2022/06/15 06:29:58;;;;;;;7.47;4.40;;;;;;;;;;4792760;29;20074;-81
2022/06/15 06:32:29;;;;;;;4.45;4.05;;;;;;;;;;4831418;29;20122;-81
2022/06/15 06:34:57;;;;;;;4.65;4.18;;;;;;;;;;4790428;29;20540;-80
2022/06/15 06:37:24;;;;;;;4.40;4.00;;;;;;;;;;4840330;29;20113;-81
2022/06/15 06:39:55;;;;;;;5.22;3.58;;;;;;;;;;4823456;29;20046;-80
2022/06/15 06:42:22;;;;;;;6.60;4.18;;;;;;;;;;4823082;29;20455;-81
2022/06/15 06:44:55;;;;;;;6.13;3.80;;;;;;;;;;4799133;29;20063;-81
2022/06/15 06:47:25;;;;;;;3.70;3.40;;;;;;;;;;4807930;29;20499;-82
2022/06/15 06:49:52;;;;;;;4.78;3.70;;;;;;;;;;4812739;29;20070;-81
2022/06/15 06:52:19;;;;;;;5.18;3.72;;;;;;;;;;4813011;29;20051;-81
2022/06/15 06:54:47;;;;;;;4.68;3.28;;;;;;;;;;4829008;29;20070;-82
2022/06/15 06:57:14;;;;;;;4.65;3.28;;;;;;;;;;4811742;29;20559;-81
2022/06/15 06:59:42;;;;;;;3.42;3.20;;;;;;;;;;4810103;29;20115;-81
2022/06/15 07:02:10;;;;;;;5.30;3.60;;;;;;;;;;4804250;29;20051;-81
2022/06/15 07:04:38;;;;;;;5.38;3.13;;;;;;;;;;4811577;29;20038;-82
2022/06/15 07:07:06;;;;;;;4.00;3.03;;;;;;;;;;4811657;29;20046;-81
2022/06/15 07:09:34;;;;;;;4.32;3.00;;;;;;;;;;4784660;29;20058;-82
2022/06/15 07:12:03;;;;;;;3.28;2.70;;;;;;;;;;4816393;29;20050;-81
2022/06/15 07:14:31;;;;;;;3.28;2.45;;;;;;;;;;4842168;29;20058;-80
2022/06/15 07:16:58;;;;;;;5.60;2.72;;;;;;;;;;4831343;29;20101;-81
2022/06/15 07:19:26;;;;;;;2.88;2.63;;;;;;;;;;4820952;29;20057;-81
2022/06/15 07:21:54;;;;;;;3.83;2.60;;;;;;;;;;4831657;29;20088;-82
2022/06/15 07:24:51;;;;;;;4.53;2.85;;;;;;;;;;4801127;29;20137;-82
2022/06/15 07:35:30;;;;;;;6.38;2.80;;;;;;;;;;4819903;29;20069;-81
2022/06/15 07:38:00;;;;;;;3.58;3.30;;;;;;;;;;4790414;29;20065;-81
2022/06/15 07:40:49;;;;;;;4.15;2.50;;;;;;;;;;4822864;29;20390;-82
2022/06/15 07:43:17;;;;;;;3.33;2.70;;;;;;;;;;4810281;29;20046;-81
2022/06/15 07:45:44;;;;;;;3.28;2.50;;;;;;;;;;4824167;29;20046;-82
2022/06/15 07:50:59;;;;;;;6.65;2.53;;;;;;;;;;4812116;29;20065;-81
2022/06/15 07:53:26;;;;;;;4.18;2.25;;;;;;;;;;4806198;29;20161;-82
2022/06/15 07:55:56;;;;;;;2.25;1.92;;;;;;;;;;4823693;29;20531;-81
2022/06/15 07:58:24;;;;;;;3.55;2.40;;;;;;;;;;4810375;29;20039;-82
2022/06/15 08:00:53;;;;;;;4.22;2.50;;;;;;;;;;4826386;29;20072;-81
2022/06/15 08:03:21;;;;;;;2.92;2.60;;;;;;;;;;4810583;29;20058;-81
2022/06/15 08:05:50;;;;;;;3.45;2.30;;;;;;;;;;4828745;29;20085;-81
2022/06/15 08:08:20;;;;;;;2.65;2.22;;;;;;;;;;4811582;29;20054;-81
2022/06/15 08:10:49;;;;;;;2.35;2.15;;;;;;;;;;4828997;29;20247;-80
2022/06/15 08:13:17;;;;;;;2.40;2.20;;;;;;;;;;4808646;29;20046;-80
2022/06/15 08:15:50;;;;;;;5.90;2.65;;;;;;;;;;4796488;29;20038;-80
2022/06/15 08:18:20;;;;;;;3.40;1.98;;;;;;;;;;4829218;29;20054;-81
2022/06/15 08:20:50;;;;;;;2.72;2.15;;;;;;;;;;4819356;29;20142;-81
2022/06/15 08:23:21;;;;;;;4.30;2.20;;;;;;;;;;4812623;29;20077;-81
2022/06/15 08:25:52;;;;;;;2.83;2.00;;;;;;;;;;4815461;29;20046;-80
2022/06/15 08:28:21;;;;;;;3.43;2.27;;;;;;;;;;4834956;29;20054;-81
2022/06/15 08:30:50;;;;;;;4.97;2.10;;;;;;;;;;4812261;29;20074;-82
2022/06/15 08:33:18;;;;;;;2.03;1.92;;;;;;;;;;4821917;29;20052;-82
2022/06/15 08:35:47;;;;;;;4.53;2.13;;;;;;;;;;4833501;29;20942;-81
2022/06/15 08:38:18;;;;;;;2.17;1.98;;;;;;;;;;4813369;29;20531;-81
2022/06/15 08:40:51;;;;;;;1.88;1.75;;;;;;;;;;4785335;29;20384;-82
2022/06/15 08:43:19;;;;;;;3.47;2.00;;;;;;;;;;4829551;29;20050;-82
2022/06/15 08:45:49;;;;;;;3.05;1.98;;;;;;;;;;4811082;29;20064;-82
2022/06/15 08:48:32;;;;;;;2.35;1.90;;;;;;;;;;4829271;29;20050;-80
2022/06/15 08:51:05;;;;;;;2.65;1.90;;;;;;;;;;4795161;29;20213;-81
2022/06/15 08:57:05;;;;;;;1.92;1.60;;;;;;;;;;4813844;29;20033;-82
2022/06/15 08:59:48;;;;;;;1.67;1.58;;;;;;;;;;4806891;29;20106;-81
2022/06/15 09:02:47;;;;;;;2.50;1.77;;;;;;;;;;4810268;29;20062;-84
2022/06/15 09:05:30;;;;;;;5.53;1.60;;;;;;;;;;4807385;29;20054;-83
2022/06/15 09:08:14;;;;;;;5.22;1.80;;;;;;;;;;4822454;29;20073;-83
2022/06/15 09:10:53;;;;;;;2.00;1.35;;;;;;;;;;4824499;29;20503;-82
2022/06/15 09:13:39;;;;;;;2.40;1.80;;;;;;;;;;4813594;29;20065;-83
2022/06/15 09:16:42;;;;;;;1.85;1.75;;;;;;;;;;4820835;29;20046;-82
2022/06/15 09:19:15;;;;;;;2.60;1.67;;;;;;;;;;4812451;29;20152;-82
2022/06/15 09:21:52;;;;;;;2.28;1.75;;;;;;;;;;4825625;29;20474;-84
2022/06/15 09:24:27;;;;;;;2.67;1.50;;;;;;;;;;4802519;29;20046;-85
2022/06/15 09:26:57;;;;;;;6.35;1.88;;;;;;;;;;4800931;29;20062;-84
2022/06/15 09:29:31;;;;;;;3.30;1.65;;;;;;;;;;4791521;29;20137;-83
2022/06/15 09:32:06;;;;;;;1.90;1.80;;;;;;;;;;4788313;29;20065;-83
2022/06/15 09:34:39;;;;;;;1.65;1.55;;;;;;;;;;4793077;29;20053;-85
2022/06/15 09:37:18;;;;;;;4.80;1.70;;;;;;;;;;4793199;29;20047;-83
2022/06/15 09:39:45;;;;;;;4.28;1.50;;;;;;;;;;4828336;29;20046;-84
2022/06/15 09:42:36;;;;;;;2.28;1.85;;;;;;;;;;4793242;29;20064;-85
2022/06/15 09:45:13;;;;;;;3.42;1.95;;;;;;;;;;4810747;29;20110;-84
2022/06/15 09:47:44;;;;;;;3.05;1.70;;;;;;;;;;4805750;29;20050;-83
2022/06/15 09:50:34;;;;;;;3.88;1.67;;;;;;;;;;4800285;29;20074;-84
2022/06/15 09:53:06;;;;;;;;;;;;;;;;;;4791345;29;20050;-84
2022/06/15 09:55:51;;;;;;;2.85;1.70;;;;;;;;;;4837553;29;19929;-82
2022/06/15 09:58:43;;;;;;;3.15;1.90;;;;;;;;;;4790394;29;20058;-85
2022/06/15 10:01:41;;;;;;;2.75;1.60;;;;;;;;;;4848777;24;20112;-79
2022/06/15 10:04:19;;;;;;;2.03;1.50;;;;;;;;;;4822914;29;20418;-80
2022/06/15 10:07:17;;;;;;;4.53;1.65;;;;;;;;;;4830068;29;20049;-79
2022/06/15 10:09:54;;;;;;;1.50;1.40;;;;;;;;;;4824827;29;20492;-81
2022/06/15 10:18:54;;;;;;;1.83;1.23;;;;;;;;;;4826172;29;20050;-80
2022/06/15 10:21:24;;;;;;;1.52;1.42;;;;;;;;;;4834390;29;20058;-79
2022/06/15 10:24:10;;;;;;;2.70;1.42;;;;;;;;;;4841800;29;20073;-79
2022/06/15 10:26:41;;;;;;;1.65;1.55;;;;;;;;;;4821490;29;20078;-78
2022/06/15 10:29:22;;;;;;;2.85;1.30;;;;;;;;;;4840036;29;20365;-80
2022/06/15 10:31:58;;;;;;;2.28;1.30;;;;;;;;;;4825021;29;20066;-79
2022/06/15 10:34:27;;;;;;;1.30;1.10;;;;;;;;;;4849835;29;20045;-79
2022/06/15 10:36:56;;;;;;;2.55;1.33;;;;;;;;;;4841300;29;20106;-79
2022/06/15 10:39:25;;;;;;;1.30;1.20;;;;;;;;;;4831414;29;20138;-79
2022/06/15 10:42:07;;;;;;;3.28;1.40;;;;;;;;;;4851616;29;20050;-78
2022/06/15 10:44:37;;;;;;;3.15;1.20;;;;;;;;;;4812520;29;20049;-80
2022/06/15 10:47:07;;;;;;;1.20;1.20;;;;;;;;;;4860364;29;20056;-79
2022/06/15 10:53:27;;;;;;;1.10;1.00;;;;;;;;;;4812408;29;20148;-79
2022/06/15 11:04:35;;;;;;;0.95;0.95;;;;;;;;;;4830883;29;20444;-79
2022/06/15 11:07:08;;;;;;;1.10;0.93;;;;;;;;;;4823183;29;20113;-79
2022/06/15 11:09:37;;;;;;;1.20;1.10;;;;;;;;;;4834386;29;20042;-79
2022/06/15 11:12:07;;;;;;;2.65;0.90;;;;;;;;;;4840166;29;20442;-79
2022/06/15 11:14:44;;;;;;;1.10;0.90;;;;;;;;;;4822912;29;20062;-79
2022/06/15 11:20:21;;;;;;;0.85;0.75;;;;;;;;;;4822929;29;20050;-79
2022/06/15 11:22:53;;;;;;;1.95;0.90;;;;;;;;;;4847137;29;20108;-76
2022/06/15 11:25:25;;;;;;;0.80;0.80;;;;;;;;;;4844573;29;20045;-79
2022/06/15 11:28:00;;;;;;;2.45;1.00;;;;;;;;;;4822394;29;20042;-78
2022/06/15 11:30:39;;;;;;;0.70;0.70;;;;;;;;;;4839746;29;20054;-79
2022/06/15 11:33:13;;;;;;;4.10;0.82;;;;;;;;;;4839174;29;20076;-78
2022/06/15 11:35:47;;;;;;;0.93;0.63;;;;;;;;;;4838409;29;20079;-78
2022/06/15 11:38:29;;;;;;;0.70;0.70;;;;;;;;;;4832023;29;20563;-77
2022/06/15 11:41:13;;;;;;;2.72;0.77;;;;;;;;;;4845845;29;20054;-78
2022/06/15 11:43:44;;;;;;;0.73;0.63;;;;;;;;;;4839939;29;20263;-79
2022/06/15 11:46:30;;;;;;;0.98;0.80;;;;;;;;;;4823667;29;20082;-79
2022/06/15 11:49:07;;;;;;;1.88;0.60;;;;;;;;;;4844041;29;20067;-78
2022/06/15 11:51:40;;;;;;;1.10;0.68;;;;;;;;;;4834361;29;20047;-79
2022/06/15 11:54:11;;;;;;;1.15;0.73;;;;;;;;;;4822809;29;20065;-80
2022/06/15 11:56:47;;;;;;;0.63;0.63;;;;;;;;;;4820968;29;20073;-79
2022/06/15 11:59:39;;;;;;;1.00;0.90;;;;;;;;;;4834273;29;20087;-77
2022/06/15 12:02:19;;;;;;;3.58;0.80;;;;;;;;;;4853596;29;20037;-78
2022/06/15 12:04:49;;;;;;;2.25;0.80;;;;;;;;;;4852137;29;20050;-78
2022/06/15 12:07:22;;;;;;;2.50;0.60;;;;;;;;;;4841177;29;20106;-78
2022/06/15 12:10:11;;;;;;;2.35;0.80;;;;;;;;;;4830835;29;20304;-79
2022/06/15 12:12:42;;;;;;;1.92;0.80;;;;;;;;;;4818896;29;20073;-79
2022/06/15 12:15:28;;;;;;;0.95;0.80;;;;;;;;;;4849140;29;20111;-78
2022/06/15 12:18:06;;;;;;;2.47;0.77;;;;;;;;;;4861573;29;20057;-78
2022/06/15 12:20:49;;;;;;;0.57;0.50;;;;;;;;;;4843351;29;20072;-78
2022/06/15 12:23:31;;;;;;;3.45;0.75;;;;;;;;;;4869632;29;20117;-77
2022/06/15 12:26:12;;;;;;;0.60;0.60;;;;;;;;;;4870308;29;20045;-78
2022/06/15 12:28:57;;;;;;;0.60;0.60;;;;;;;;;;4869109;29;20045;-79
2022/06/15 12:31:45;;;;;;;1.10;0.60;;;;;;;;;;4869759;29;20190;-78
2022/06/15 12:34:25;;;;;;;2.67;0.70;;;;;;;;;;4865042;29;20309;-78
2022/06/15 12:36:59;;;;;;;1.95;0.73;;;;;;;;;;4869059;29;20049;-79
2022/06/15 12:40:06;;;;;;;1.33;0.60;;;;;;;;;;4867024;29;20049;-79
2022/06/15 12:42:34;;;;;;;0.73;0.60;;;;;;;;;;4825948;29;20065;-77
2022/06/15 12:45:14;;;;;;;0.60;0.60;;;;;;;;;;4849886;29;20100;-78
2022/06/15 12:47:44;;;;;;;0.83;0.70;;;;;;;;;;4823274;29;20073;-79
2022/06/15 12:50:25;;;;;;;0.90;0.60;;;;;;;;;;4846122;29;20053;-80
2022/06/15 12:52:58;;;;;;;0.77;0.70;;;;;;;;;;4855308;29;20118;-79
2022/06/15 12:55:58;;;;;;;0.60;0.60;;;;;;;;;;4830913;29;20053;-78
2022/06/15 12:58:35;;;;;;;0.55;0.40;;;;;;;;;;4804717;29;20295;-78
2022/06/15 13:01:11;;;;;;;2.80;0.63;;;;;;;;;;4841154;29;20086;-79
2022/06/15 13:03:50;;;;;;;0.77;0.77;;;;;;;;;;4813299;29;20961;-79
2022/06/15 13:06:20;;;;;;;2.70;0.50;;;;;;;;;;4841647;29;20523;-79
2022/06/15 13:08:58;;;;;;;0.73;0.73;;;;;;;;;;4836820;29;20054;-80
2022/06/15 13:11:26;;;;;;;1.27;0.52;;;;;;;;;;4841123;29;20230;-79
2022/06/15 13:14:11;;;;;;;0.73;0.52;;;;;;;;;;4837362;29;20046;-79
2022/06/15 13:16:41;;;;;;;0.70;0.60;;;;;;;;;;4838080;29;20137;-79
2022/06/15 13:19:10;;;;;;;1.75;0.55;;;;;;;;;;4840188;29;20052;-79
2022/06/15 13:21:53;;;;;;;0.70;0.70;;;;;;;;;;4841701;29;20048;-79
2022/06/15 13:24:21;;;;;;;2.58;0.50;;;;;;;;;;4840082;29;20075;-79
2022/06/15 13:27:09;;;;;;;0.40;0.40;;;;;;;;;;4827877;29;20550;-78
2022/06/15 13:29:49;;;;;;;0.40;0.40;;;;;;;;;;4818529;29;20050;-78
2022/06/15 13:32:37;;;;;;;0.50;0.50;;;;;;;;;;4833212;29;20132;-77
2022/06/15 13:35:25;;;;;;;0.40;0.40;;;;;;;;;;4845890;29;20440;-78
2022/06/15 13:38:00;;;;;;;0.52;0.52;;;;;;;;;;4846004;29;20079;-78
2022/06/15 13:41:03;;;;;;;1.08;0.50;;;;;;;;;;4837840;29;20464;-78
2022/06/15 13:43:53;;;;;;;2.05;0.55;;;;;;;;;;4780485;29;20043;-78
2022/06/15 13:46:28;;;;;;;1.38;0.50;;;;;;;;;;4832628;29;20064;-79
2022/06/15 13:49:18;;;;;;;0.60;0.50;;;;;;;;;;4813572;29;20077;-77
2022/06/15 13:51:46;;;;;;;0.73;0.65;;;;;;;;;;4834582;29;20131;-78
2022/06/15 13:54:38;;;;;;;2.38;0.60;;;;;;;;;;4829879;29;20050;-78
2022/06/15 13:57:14;;;;;;;2.28;0.50;;;;;;;;;;4844997;29;20510;-79
2022/06/15 13:59:47;;;;;;;0.45;0.40;;;;;;;;;;4847107;29;20077;-79
2022/06/15 14:02:36;;;;;;;0.65;0.50;;;;;;;;;;4825962;29;20411;-78
2022/06/15 14:05:23;;;;;;;0.82;0.30;;;;;;;;;;4844182;29;20071;-77
2022/06/15 14:08:15;;;;;;;1.23;0.60;;;;;;;;;;4843269;29;20372;-78
2022/06/15 14:11:08;;;;;;;0.57;0.57;;;;;;;;;;4844399;29;20289;-79
2022/06/15 14:13:54;;;;;;;0.30;0.30;;;;;;;;;;4821718;29;20054;-78
2022/06/15 14:16:34;;;;;;;0.55;0.50;;;;;;;;;;4839307;29;20050;-79
2022/06/15 14:19:07;;;;;;;0.85;0.40;;;;;;;;;;4820282;29;20049;-78
2022/06/15 14:22:02;;;;;;;1.35;0.70;;;;;;;;;;4831093;29;20038;-78
2022/06/15 14:24:31;;;;;;;4.32;0.50;;;;;;;;;;4843477;29;20480;-78
2022/06/15 14:26:59;;;;;;;1.77;0.40;;;;;;;;;;4844295;29;20098;-80
2022/06/15 14:29:35;;;;;;;0.82;0.50;;;;;;;;;;4842234;29;20475;-77
2022/06/15 14:32:03;;;;;;;1.08;0.40;;;;;;;;;;4834190;29;20041;-78
2022/06/15 14:34:36;;;;;;;0.50;0.50;;;;;;;;;;4843447;29;20061;-78
2022/06/15 14:37:32;;;;;;;1.85;0.40;;;;;;;;;;4846136;29;20079;-79
2022/06/15 14:40:02;;;;;;;0.82;0.40;;;;;;;;;;4830106;29;20069;-80
2022/06/15 14:42:55;;;;;;;0.40;0.40;;;;;;;;;;4844865;29;20054;-79
2022/06/15 14:45:27;;;;;;;1.20;0.50;;;;;;;;;;4842806;29;20370;-78
2022/06/15 14:47:56;;;;;;;0.35;0.30;;;;;;;;;;4840163;29;20053;-80
2022/06/15 14:50:26;;;;;;;0.38;0.38;;;;;;;;;;4843838;29;20065;-79
2022/06/15 14:52:53;;;;;;;0.40;0.40;;;;;;;;;;4838378;29;20072;-78
2022/06/15 14:55:23;;;;;;;0.30;0.30;;;;;;;;;;4840013;29;20470;-79
2022/06/15 14:58:07;;;;;;;0.40;0.40;;;;;;;;;;4838251;29;20042;-79
2022/06/15 15:00:35;;;;;;;1.25;0.35;;;;;;;;;;4842792;29;20411;-79
2022/06/15 15:03:04;;;;;;;0.50;0.50;;;;;;;;;;4846600;29;20619;-78
2022/06/15 15:05:34;;;;;;;0.30;0.30;;;;;;;;;;4843426;29;20050;-80
2022/06/15 15:08:17;;;;;;;2.08;0.50;;;;;;;;;;4829306;29;20053;-79
2022/06/15 15:10:45;;;;;;;2.05;0.40;;;;;;;;;;4843234;29;20167;-79
2022/06/15 15:13:19;;;;;;;1.95;0.43;;;;;;;;;;4815078;29;20538;-79
2022/06/15 15:15:56;;;;;;;2.30;0.50;;;;;;;;;;4843789;29;20046;-79
2022/06/15 15:18:26;;;;;;;1.77;0.30;;;;;;;;;;4849782;29;20521;-78
2022/06/15 15:20:55;;;;;;;0.73;0.40;;;;;;;;;;4847418;29;20046;-79
2022/06/15 15:23:41;;;;;;;0.50;0.40;;;;;;;;;;4848926;29;20148;-78
2022/06/15 15:26:26;;;;;;;0.98;0.68;;;;;;;;;;4847583;29;20132;-79
2022/06/15 15:34:34;;;;;;;0.43;0.30;;;;;;;;;;4822949;29;20642;-78
2022/06/15 15:39:48;;;;;;;0.80;0.50;;;;;;;;;;4832808;29;20351;-79
2022/06/15 15:42:18;;;;;;;2.00;0.40;;;;;;;;;;4839231;29;20045;-79
2022/06/15 15:44:46;;;;;;;0.40;0.40;;;;;;;;;;4838538;29;20478;-78
2022/06/15 15:47:16;;;;;;;0.38;0.38;;;;;;;;;;4822790;29;20070;-78
2022/06/15 15:49:44;;;;;;;1.10;0.47;;;;;;;;;;4823973;29;20054;-78
2022/06/15 15:52:16;;;;;;;0.70;0.50;;;;;;;;;;4829053;29;20054;-78
2022/06/15 15:54:44;;;;;;;0.30;0.30;;;;;;;;;;4849033;29;20049;-78
2022/06/15 15:57:13;;;;;;;0.60;0.60;;;;;;;;;;4852398;29;20042;-79
2022/06/15 15:59:42;;;;;;;1.20;0.50;;;;;;;;;;4847259;29;20056;-78
2022/06/15 16:02:11;;;;;;;0.40;0.40;;;;;;;;;;4860002;24;20539;-82
2022/06/15 16:04:39;;;;;;;0.70;0.60;;;;;;;;;;4858160;29;20057;-82
2022/06/15 16:07:08;;;;;;;1.38;0.50;;;;;;;;;;4848976;29;20610;-83
2022/06/15 16:09:37;;;;;;;0.40;0.40;;;;;;;;;;4875711;29;20057;-84